createdAt,value
2019-03-23T00:01:05.945Z,102837.77
2019-03-23T00:03:58.547Z,102839.31
2019-03-23T00:06:51.057Z,102839.42
2019-03-23T00:09:43.310Z,102836.95
2019-03-23T00:12:36.361Z,102833.50
2019-03-23T00:15:28.527Z,102827.77
2019-03-23T00:18:21.120Z,102831.16
2019-03-23T00:21:13.775Z,102822.56
2019-03-23T00:24:06.413Z,102826.33
2019-03-23T00:26:59.282Z,102830.16
2019-03-23T00:29:51.811Z,102830.00
2019-03-23T00:32:44.323Z,102832.63
2019-03-23T00:35:36.430Z,102825.75
2019-03-23T00:38:28.879Z,102826.84
2019-03-23T00:41:21.091Z,102832.12
2019-03-23T00:44:13.943Z,102830.89
2019-03-23T00:47:06.575Z,102834.67
2019-03-23T00:49:59.052Z,102837.33
2019-03-23T00:52:51.206Z,102839.84
2019-03-23T00:55:43.299Z,102843.42
2019-03-23T00:58:35.387Z,102845.20
2019-03-23T01:01:27.483Z,102844.56
2019-03-23T01:04:19.881Z,102853.86
2019-03-23T01:07:12.746Z,102846.19
2019-03-23T01:10:05.917Z,102845.38
2019-03-23T01:12:59.297Z,102844.98
2019-03-23T01:15:51.524Z,102841.41
2019-03-23T01:18:44.202Z,102837.48
2019-03-23T01:21:36.410Z,102839.39
2019-03-23T01:24:28.863Z,102838.64
2019-03-23T01:27:21.090Z,102844.48
2019-03-23T01:30:14.619Z,102831.84
2019-03-23T01:33:06.882Z,102838.31
2019-03-23T01:35:59.349Z,102842.30
2019-03-23T01:38:51.744Z,102840.34
2019-03-23T01:41:43.892Z,102832.77
2019-03-23T01:44:36.118Z,102832.72
2019-03-23T01:47:28.607Z,102836.37
2019-03-23T01:50:20.721Z,102835.53
2019-03-23T01:53:13.110Z,102834.02
2019-03-23T01:56:05.410Z,102825.10
2019-03-23T01:58:57.570Z,102829.43
2019-03-23T02:01:49.995Z,102824.33
2019-03-23T02:04:42.454Z,102818.05
2019-03-23T02:07:34.926Z,102823.14
2019-03-23T02:10:28.222Z,102811.91
2019-03-23T02:13:20.345Z,102810.75
2019-03-23T02:16:12.820Z,102815.09
2019-03-23T02:19:04.980Z,102817.38
2019-03-23T02:21:57.211Z,102813.69
2019-03-23T02:24:50.186Z,102821.35
2019-03-23T02:27:42.594Z,102825.32
2019-03-23T02:30:35.021Z,102821.20
2019-03-23T02:33:27.520Z,102818.74
2019-03-23T02:36:20.054Z,102815.77
2019-03-23T02:39:12.219Z,102812.63
2019-03-23T02:42:04.654Z,102809.48
2019-03-23T02:44:57.024Z,102813.09
2019-03-23T02:47:49.214Z,102812.20
2019-03-23T02:50:41.463Z,102803.86
2019-03-23T02:53:33.699Z,102810.25
2019-03-23T02:56:25.875Z,102819.20
2019-03-23T02:59:18.006Z,102817.95
2019-03-23T03:02:10.829Z,102816.59
2019-03-23T03:05:03.146Z,102823.39
2019-03-23T03:07:56.409Z,102817.27
2019-03-23T03:10:48.739Z,102819.86
2019-03-23T03:13:41.768Z,102817.39
2019-03-23T03:16:34.395Z,102822.35
2019-03-23T03:19:26.656Z,102821.64
2019-03-23T03:22:19.592Z,102825.53
2019-03-23T03:25:12.476Z,102825.94
2019-03-23T03:28:05.653Z,102831.18
2019-03-23T03:30:58.160Z,102832.45
2019-03-23T03:33:50.743Z,102832.45
2019-03-23T03:36:43.031Z,102824.06
2019-03-23T03:39:35.484Z,102827.39
2019-03-23T03:42:28.421Z,102838.00
2019-03-23T03:45:26.501Z,102839.47
2019-03-23T03:48:18.788Z,102837.77
2019-03-23T03:51:10.899Z,102841.08
2019-03-23T03:54:03.035Z,102844.92
2019-03-23T03:56:55.393Z,102843.25
2019-03-23T03:59:47.824Z,102845.80
2019-03-23T04:02:40.928Z,102847.55
2019-03-23T04:05:33.060Z,102845.61
2019-03-23T04:08:25.417Z,102844.94
2019-03-23T04:11:19.639Z,102844.89
2019-03-23T04:14:12.237Z,102836.71
2019-03-23T04:17:04.871Z,102832.85
2019-03-23T04:19:56.984Z,102831.34
2019-03-23T04:22:50.576Z,102831.81
2019-03-23T04:25:43.009Z,102837.09
2019-03-23T04:28:35.842Z,102835.84
2019-03-23T04:31:28.104Z,102831.33
2019-03-23T04:34:20.531Z,102836.77
2019-03-23T04:37:13.487Z,102841.41
2019-03-23T04:40:06.868Z,102842.20
2019-03-23T04:42:59.004Z,102839.70
2019-03-23T04:45:51.709Z,102842.12
2019-03-23T04:48:44.119Z,102846.17
2019-03-23T04:51:36.858Z,102848.13
2019-03-23T04:54:29.344Z,102852.78
2019-03-23T04:57:21.717Z,102855.48
2019-03-23T05:00:15.254Z,102863.48
2019-03-23T05:03:07.348Z,102859.38
2019-03-23T05:05:59.867Z,102867.22
2019-03-23T05:08:51.958Z,102871.16
2019-03-23T05:11:44.992Z,102875.24
2019-03-23T05:14:37.395Z,102876.52
2019-03-23T05:17:30.655Z,102876.99
2019-03-23T05:20:31.709Z,102882.12
2019-03-23T05:23:23.859Z,102881.56
2019-03-23T05:26:16.229Z,102887.09
2019-03-23T05:29:08.518Z,102891.70
2019-03-23T05:32:00.602Z,102893.17
2019-03-23T05:34:52.851Z,102897.70
2019-03-23T05:37:45.292Z,102892.73
2019-03-23T05:40:38.334Z,102889.22
2019-03-23T05:43:30.587Z,102891.52
2019-03-23T05:46:22.919Z,102888.34
2019-03-23T05:49:15.275Z,102900.98
2019-03-23T05:52:08.063Z,102908.91
2019-03-23T05:55:00.381Z,102915.31
2019-03-23T05:57:52.758Z,102915.27
2019-03-23T06:00:45.017Z,102922.06
2019-03-23T06:03:37.299Z,102912.25
2019-03-23T06:06:29.506Z,102915.31
2019-03-23T06:09:21.906Z,102920.83
2019-03-23T06:12:14.160Z,102921.50
2019-03-23T06:15:07.501Z,102926.00
2019-03-23T06:17:59.735Z,102931.48
2019-03-23T06:20:52.082Z,102932.99
2019-03-23T06:23:44.627Z,102939.23
2019-03-23T06:26:36.724Z,102940.06
2019-03-23T06:29:29.831Z,102948.78
2019-03-23T06:32:22.329Z,102954.89
2019-03-23T06:35:16.339Z,102957.36
2019-03-23T06:38:08.907Z,102955.33
2019-03-23T06:41:01.436Z,102960.93
2019-03-23T06:43:53.476Z,102960.49
2019-03-23T06:46:46.331Z,102960.97
2019-03-23T06:49:38.695Z,102964.34
2019-03-23T06:52:31.236Z,102958.98
2019-03-23T06:55:23.539Z,102959.84
2019-03-23T06:58:15.892Z,102964.21
2019-03-23T07:01:08.232Z,102960.27
2019-03-23T07:04:00.741Z,102951.63
2019-03-23T07:06:53.049Z,102946.56
2019-03-23T07:09:45.260Z,102950.85
2019-03-23T07:12:37.746Z,102953.55
2019-03-23T07:15:30.120Z,102953.57
2019-03-23T07:18:22.356Z,102957.38
2019-03-23T07:21:14.844Z,102959.63
2019-03-23T07:24:07.376Z,102962.44
2019-03-23T07:26:59.891Z,102964.86
2019-03-23T07:29:52.099Z,102958.68
2019-03-23T07:32:44.265Z,102961.39
2019-03-23T07:35:36.428Z,102966.68
2019-03-23T07:38:28.594Z,102975.82
2019-03-23T07:41:21.168Z,102975.69
2019-03-23T07:44:13.313Z,102978.78
2019-03-23T07:47:05.488Z,102976.01
2019-03-23T07:49:58.136Z,102979.14
2019-03-23T07:52:50.332Z,102975.81
2019-03-23T07:55:42.912Z,102977.24
2019-03-23T07:58:35.840Z,102983.80
2019-03-23T08:01:28.419Z,102982.49
2019-03-23T08:04:21.325Z,102983.66
2019-03-23T08:07:13.915Z,102982.45
2019-03-23T08:10:07.117Z,102983.59
2019-03-23T08:12:59.389Z,102983.73
2019-03-23T08:15:52.050Z,102988.60
2019-03-23T08:18:44.916Z,102988.77
2019-03-23T08:21:37.581Z,102978.43
2019-03-23T08:24:30.449Z,102979.11
2019-03-23T08:27:22.690Z,102981.56
2019-03-23T08:30:15.511Z,102988.95
2019-03-23T08:33:07.966Z,102983.95
2019-03-23T08:36:00.235Z,102979.81
2019-03-23T08:38:52.895Z,102984.96
2019-03-23T08:41:45.269Z,102980.63
2019-03-23T08:44:37.718Z,102984.75
2019-03-23T08:47:29.888Z,102983.78
2019-03-23T08:50:22.455Z,102983.08
2019-03-23T08:53:14.625Z,102991.38
2019-03-23T08:56:06.853Z,102990.20
2019-03-23T08:58:59.263Z,102991.19
2019-03-23T09:01:52.079Z,103000.48
2019-03-23T09:04:44.494Z,103001.60
2019-03-23T09:07:36.882Z,103010.48
2019-03-23T09:10:29.088Z,103008.76
2019-03-23T09:13:21.237Z,103011.30
2019-03-23T09:16:13.820Z,103014.44
2019-03-23T09:19:06.238Z,103016.41
2019-03-23T09:21:58.628Z,103021.14
2019-03-23T09:24:50.787Z,103020.84
2019-03-23T09:27:42.988Z,103022.20
2019-03-23T09:30:36.093Z,103020.27
2019-03-23T09:33:28.844Z,103026.75
2019-03-23T09:36:22.836Z,103028.98
2019-03-23T09:39:15.106Z,103028.69
2019-03-23T09:42:07.297Z,103034.50
2019-03-23T09:45:00.360Z,103034.55
2019-03-23T09:47:52.495Z,103036.55
2019-03-23T09:50:44.910Z,103032.47
2019-03-23T09:53:37.289Z,103041.95
2019-03-23T09:56:29.649Z,103039.02
2019-03-23T09:59:22.036Z,103040.84
2019-03-23T10:02:14.227Z,103031.36
2019-03-23T10:05:07.008Z,103034.61
2019-03-23T10:07:59.522Z,103041.55
2019-03-23T10:10:52.141Z,103042.92
2019-03-23T10:13:44.324Z,103048.79
2019-03-23T10:16:36.597Z,103043.78
2019-03-23T10:19:28.969Z,103042.55
2019-03-23T10:22:21.217Z,103039.94
2019-03-23T10:25:13.608Z,103041.13
2019-03-23T10:28:06.001Z,103043.37
2019-03-23T10:30:58.541Z,103042.29
2019-03-23T10:33:51.053Z,103033.94
2019-03-23T10:36:43.439Z,103040.86
2019-03-23T10:39:36.024Z,103036.28
2019-03-23T10:42:28.313Z,103030.89
2019-03-23T10:45:20.913Z,103026.59
2019-03-23T10:48:14.325Z,103027.95
2019-03-23T10:51:06.754Z,103028.84
2019-03-23T10:53:58.939Z,103021.62
2019-03-23T10:56:52.081Z,103016.84
2019-03-23T10:59:44.201Z,103014.26
2019-03-23T11:02:37.250Z,103018.65
2019-03-23T11:05:29.312Z,103018.12
2019-03-23T11:08:22.028Z,103010.45
2019-03-23T11:11:14.415Z,103014.09
2019-03-23T11:14:06.713Z,103013.16
2019-03-23T11:16:59.028Z,103016.42
2019-03-23T11:19:51.498Z,103015.95
2019-03-23T11:22:43.744Z,103017.30
2019-03-23T11:25:35.889Z,103007.23
2019-03-23T11:28:29.006Z,103010.63
2019-03-23T11:31:21.117Z,103009.81
2019-03-23T11:34:17.800Z,103010.03
2019-03-23T11:37:07.713Z,103007.11
2019-03-23T11:40:00.339Z,103006.93
2019-03-23T11:42:52.931Z,103007.06
2019-03-23T11:45:45.555Z,103008.42
2019-03-23T11:48:37.942Z,103009.52
2019-03-23T11:51:30.530Z,103009.87
2019-03-23T11:54:22.864Z,103008.73
2019-03-23T11:57:15.298Z,103009.36
2019-03-23T12:00:09.377Z,103011.72
2019-03-23T12:03:01.884Z,103012.42
2019-03-23T12:05:54.482Z,103010.66
2019-03-23T12:08:47.393Z,103006.28
2019-03-23T12:11:39.562Z,103010.33
2019-03-23T12:14:31.974Z,103011.95
2019-03-23T12:17:24.377Z,103010.63
2019-03-23T12:20:16.949Z,103007.08
2019-03-23T12:23:09.378Z,103003.04
2019-03-23T12:26:02.272Z,103003.48
2019-03-23T12:28:54.433Z,103000.72
2019-03-23T12:31:46.964Z,102993.13
2019-03-23T12:34:39.229Z,102991.31
2019-03-23T12:37:31.470Z,102994.90
2019-03-23T12:40:24.005Z,102999.31
2019-03-23T12:43:16.876Z,102998.53
2019-03-23T12:46:09.239Z,102996.64
2019-03-23T12:49:01.516Z,102999.20
2019-03-23T12:51:54.914Z,102997.05
2019-03-23T12:54:47.218Z,103002.31
2019-03-23T12:57:39.961Z,102999.07
2019-03-23T13:00:32.332Z,103004.00
2019-03-23T13:03:24.503Z,102998.10
2019-03-23T13:06:16.841Z,102999.64
2019-03-23T13:09:10.420Z,103007.41
2019-03-23T13:12:02.582Z,103008.41
2019-03-23T13:14:55.432Z,103006.95
2019-03-23T13:17:47.989Z,103006.23
2019-03-23T13:20:40.162Z,103015.05
2019-03-23T13:23:33.228Z,103020.52
2019-03-23T13:26:25.397Z,103023.07
2019-03-23T13:29:18.284Z,103023.47
2019-03-23T13:32:10.762Z,103023.98
2019-03-23T13:35:02.913Z,103024.13
2019-03-23T13:37:55.049Z,103028.72
2019-03-23T13:40:47.489Z,103026.65
2019-03-23T13:43:40.124Z,103033.57
2019-03-23T13:46:32.244Z,103025.92
2019-03-23T13:49:24.715Z,103028.14
2019-03-23T13:52:16.917Z,103028.97
2019-03-23T13:55:20.651Z,103035.43
2019-03-23T13:58:15.043Z,103030.56
2019-03-23T14:01:07.510Z,103027.13
2019-03-23T14:04:00.480Z,103026.00
2019-03-23T14:06:53.053Z,103028.86
2019-03-23T14:09:45.365Z,103029.23
2019-03-23T14:12:37.825Z,103030.67
2019-03-23T14:15:31.403Z,103027.00
2019-03-23T14:18:23.975Z,103029.17
2019-03-23T14:21:16.691Z,103028.08
2019-03-23T14:24:08.811Z,103027.83
2019-03-23T14:27:00.996Z,103025.88
2019-03-23T14:29:53.728Z,103026.25
2019-03-23T14:32:46.207Z,103027.30
2019-03-23T14:35:38.838Z,103030.50
2019-03-23T14:38:31.047Z,103030.15
2019-03-23T14:41:23.380Z,103036.55
2019-03-23T14:44:15.803Z,103036.91
2019-03-23T14:47:08.165Z,103041.69
2019-03-23T14:50:00.439Z,103042.20
2019-03-23T14:52:52.571Z,103041.67
2019-03-23T14:55:47.167Z,103046.77
2019-03-23T14:58:39.650Z,103049.10
2019-03-23T15:01:31.819Z,103047.28
2019-03-23T15:04:25.424Z,103047.63
2019-03-23T15:07:17.717Z,103045.70
2019-03-23T15:10:10.540Z,103044.02
2019-03-23T15:13:03.632Z,103042.79
2019-03-23T15:15:56.152Z,103047.78
2019-03-23T15:18:48.458Z,103047.13
2019-03-23T15:21:40.874Z,103044.06
2019-03-23T15:24:33.320Z,103047.41
2019-03-23T15:27:25.826Z,103044.77
2019-03-23T15:30:18.717Z,103041.27
2019-03-23T15:33:11.233Z,103041.47
2019-03-23T15:36:03.661Z,103040.67
2019-03-23T15:38:56.277Z,103037.88
2019-03-23T15:41:48.784Z,103035.20
2019-03-23T15:44:41.072Z,103045.03
2019-03-23T15:47:33.418Z,103039.62
2019-03-23T15:50:26.060Z,103039.83
2019-03-23T15:53:19.725Z,103044.88
2019-03-23T15:56:11.873Z,103040.72
2019-03-23T15:59:03.984Z,103035.22
2019-03-23T16:01:56.160Z,103036.50
2019-03-23T16:04:49.059Z,103036.20
2019-03-23T16:07:41.836Z,103042.59
2019-03-23T16:10:34.299Z,103036.55
2019-03-23T16:13:27.183Z,103033.10
2019-03-23T16:16:19.575Z,103032.36
2019-03-23T16:19:12.130Z,103036.13
2019-03-23T16:22:04.402Z,103032.36
2019-03-23T16:24:56.693Z,103030.73
2019-03-23T16:27:48.952Z,103033.92
2019-03-23T16:30:41.102Z,103039.98
2019-03-23T16:33:33.683Z,103034.47
2019-03-23T16:36:26.172Z,103038.12
2019-03-23T16:39:18.573Z,103045.25
2019-03-23T16:42:10.808Z,103041.96
2019-03-23T16:45:03.763Z,103038.94
2019-03-23T16:47:56.208Z,103039.30
2019-03-23T16:50:48.961Z,103037.21
2019-03-23T16:53:42.159Z,103034.89
2019-03-23T16:56:34.225Z,103040.07
2019-03-23T16:59:26.391Z,103042.53
2019-03-23T17:02:19.240Z,103049.41
2019-03-23T17:05:12.033Z,103047.59
2019-03-23T17:08:04.460Z,103049.17
2019-03-23T17:10:56.735Z,103040.30
2019-03-23T17:13:49.975Z,103040.20
2019-03-23T17:16:42.187Z,103038.09
2019-03-23T17:19:34.733Z,103038.34
2019-03-23T17:22:27.293Z,103040.67
2019-03-23T17:25:19.975Z,103033.84
2019-03-23T17:28:12.386Z,103036.55
2019-03-23T17:31:04.731Z,103036.20
2019-03-23T17:33:57.052Z,103034.86
2019-03-23T17:36:49.511Z,103033.47
2019-03-23T17:39:41.709Z,103042.00
2019-03-23T17:42:33.855Z,103048.34
2019-03-23T17:45:26.055Z,103044.28
2019-03-23T17:48:18.335Z,103045.97
2019-03-23T17:51:10.741Z,103046.84
2019-03-23T17:54:02.913Z,103048.40
2019-03-23T17:56:55.220Z,103056.80
2019-03-23T17:59:47.342Z,103061.81
2019-03-23T18:02:39.653Z,103061.45
2019-03-23T18:05:32.207Z,103062.38
2019-03-23T18:08:24.622Z,103060.03
2019-03-23T18:11:16.990Z,103064.20
2019-03-23T18:14:10.162Z,103065.56
2019-03-23T18:17:02.775Z,103066.48
2019-03-23T18:19:55.202Z,103069.66
2019-03-23T18:22:48.407Z,103066.39
2019-03-23T18:25:40.870Z,103069.50
2019-03-23T18:28:34.127Z,103065.08
2019-03-23T18:31:26.447Z,103064.96
2019-03-23T18:34:18.985Z,103065.75
2019-03-23T18:37:11.435Z,103064.52
2019-03-23T18:40:04.007Z,103067.02
2019-03-23T18:42:56.564Z,103068.66
2019-03-23T18:45:48.808Z,103068.28
2019-03-23T18:48:41.083Z,103066.09
2019-03-23T18:51:33.196Z,103063.38
2019-03-23T18:54:26.050Z,103068.23
2019-03-23T18:57:19.060Z,103064.59
2019-03-23T19:00:12.718Z,103065.10
2019-03-23T19:03:05.143Z,103060.63
2019-03-23T19:05:57.618Z,103060.74
2019-03-23T19:08:50.034Z,103061.41
2019-03-23T19:11:42.491Z,103062.48
2019-03-23T19:14:34.549Z,103058.44
2019-03-23T19:17:27.175Z,103062.32
2019-03-23T19:20:19.333Z,103064.26
2019-03-23T19:23:11.517Z,103066.56
2019-03-23T19:26:03.754Z,103063.15
2019-03-23T19:28:55.833Z,103064.67
2019-03-23T19:31:49.163Z,103067.30
2019-03-23T19:34:41.874Z,103073.44
2019-03-23T19:37:34.786Z,103067.75
2019-03-23T19:40:27.354Z,103067.78
2019-03-23T19:43:19.931Z,103073.63
2019-03-23T19:46:12.422Z,103077.06
2019-03-23T19:49:05.650Z,103073.84
2019-03-23T19:51:57.833Z,103072.86
2019-03-23T19:54:50.839Z,103082.56
2019-03-23T19:57:42.917Z,103080.00
2019-03-23T20:00:35.338Z,103079.77
2019-03-23T20:03:27.838Z,103083.92
2019-03-23T20:06:20.218Z,103086.81
2019-03-23T20:09:11.766Z,103091.06
2019-03-23T20:12:04.153Z,103088.47
2019-03-23T20:14:56.526Z,103085.38
2019-03-23T20:17:48.801Z,103090.05
2019-03-23T20:20:41.402Z,103088.45
2019-03-23T20:23:33.982Z,103098.72
2019-03-23T20:26:26.130Z,103091.80
2019-03-23T20:29:18.412Z,103093.77
2019-03-23T20:32:10.787Z,103091.05
2019-03-23T20:35:03.234Z,103093.86
2019-03-23T20:37:55.711Z,103089.48
2019-03-23T20:40:47.827Z,103089.96
2019-03-23T20:43:39.952Z,103083.55
2019-03-23T20:46:32.660Z,103090.81
2019-03-23T20:49:25.782Z,103090.97
2019-03-23T20:52:17.991Z,103092.20
2019-03-23T20:55:25.724Z,103083.05
2019-03-23T20:58:17.906Z,103084.30
2019-03-23T21:01:10.341Z,103078.55
2019-03-23T21:04:03.629Z,103073.95
2019-03-23T21:06:57.104Z,103069.81
2019-03-23T21:09:49.653Z,103070.37
2019-03-23T21:12:42.268Z,103072.16
2019-03-23T21:15:34.655Z,103063.98
2019-03-23T21:18:26.874Z,103060.79
2019-03-23T21:21:19.328Z,103060.42
2019-03-23T21:24:11.750Z,103061.33
2019-03-23T21:27:03.871Z,103062.80
2019-03-23T21:29:56.370Z,103056.63
2019-03-23T21:32:48.759Z,103060.44
2019-03-23T21:35:41.153Z,103060.11
2019-03-23T21:38:33.530Z,103050.58
2019-03-23T21:41:25.601Z,103053.23
2019-03-23T21:44:18.116Z,103055.95
2019-03-23T21:47:10.313Z,103053.45
2019-03-23T21:50:02.662Z,103047.15
2019-03-23T21:52:55.038Z,103051.59
2019-03-23T21:55:47.071Z,103042.94
2019-03-23T21:58:39.254Z,103035.88
2019-03-23T22:01:31.550Z,103035.08
2019-03-23T22:04:23.627Z,103038.30
2019-03-23T22:07:15.762Z,103037.45
2019-03-23T22:10:09.826Z,103039.56
2019-03-23T22:13:02.194Z,103041.48
2019-03-23T22:15:55.859Z,103044.06
2019-03-23T22:18:48.435Z,103038.34
2019-03-23T22:21:40.669Z,103031.21
2019-03-23T22:24:33.782Z,103028.34
2019-03-23T22:27:26.186Z,103031.11
2019-03-23T22:30:19.111Z,103029.83
2019-03-23T22:33:11.256Z,103028.73
2019-03-23T22:36:03.733Z,103032.80
2019-03-23T22:38:56.160Z,103031.58
2019-03-23T22:41:48.370Z,103033.12
2019-03-23T22:44:40.821Z,103030.21
2019-03-23T22:47:33.196Z,103029.84
2019-03-23T22:50:25.814Z,103029.46
2019-03-23T22:53:18.824Z,103023.81
2019-03-23T22:56:11.050Z,103024.92
2019-03-23T22:59:03.883Z,103032.43
2019-03-23T23:01:56.758Z,103036.66
2019-03-23T23:04:49.012Z,103029.63
2019-03-23T23:07:41.135Z,103027.94
2019-03-23T23:10:33.563Z,103031.27
2019-03-23T23:13:28.010Z,103031.25
2019-03-23T23:16:20.201Z,103020.47
2019-03-23T23:19:13.234Z,103016.17
2019-03-23T23:22:05.783Z,103019.48
2019-03-23T23:24:58.244Z,103017.38
2019-03-23T23:27:50.642Z,103010.36
2019-03-23T23:30:43.023Z,103016.52
2019-03-23T23:33:35.218Z,103018.58
2019-03-23T23:36:27.590Z,103019.48
2019-03-23T23:39:20.074Z,103015.88
2019-03-23T23:42:12.932Z,103006.09
2019-03-23T23:45:14.864Z,103007.38
2019-03-23T23:48:00.779Z,103010.69
2019-03-23T23:50:52.947Z,103012.92
2019-03-23T23:53:45.037Z,103008.97
2019-03-23T23:56:37.876Z,103009.70
2019-03-23T23:59:30.002Z,103009.81
